createdAt,value
2022-09-28T05:57:07.123Z,5.50
2022-09-28T06:15:10.433Z,6.10
2022-09-28T06:27:22.153Z,6.30
2022-09-28T06:42:35.593Z,7.00
2022-09-28T06:47:47.599Z,7.20
2022-09-28T06:52:53.213Z,7.60
2022-09-28T06:58:17.766Z,7.80
2022-09-28T07:28:05.426Z,8.90
2022-09-28T07:33:25.357Z,9.10
2022-09-28T07:38:35.451Z,9.30
2022-09-28T07:43:30.818Z,9.50
2022-09-28T07:48:25.013Z,9.70
2022-09-28T07:53:35.466Z,9.80
2022-09-28T07:59:02.943Z,9.90
2022-09-28T08:04:06.411Z,10.10
2022-09-28T08:09:02.339Z,10.20
2022-09-28T08:14:17.639Z,10.40
2022-09-28T08:19:50.494Z,10.50
2022-09-28T08:24:44.577Z,10.60
2022-09-28T08:29:40.374Z,10.80
2022-09-28T08:35:03.469Z,10.90
2022-09-28T08:40:19.189Z,11.00
2022-09-28T08:45:37.215Z,11.10
2022-09-28T08:50:56.023Z,11.20
2022-09-28T08:56:06.218Z,11.20
2022-09-28T09:01:17.092Z,11.40
2022-09-28T09:06:23.501Z,11.60
2022-09-28T09:11:34.282Z,11.70
2022-09-28T09:16:40.306Z,11.70
2022-09-28T09:22:01.347Z,11.80
2022-09-28T09:27:05.525Z,11.90
2022-09-28T09:32:16.051Z,12.00
2022-09-28T09:37:29.709Z,12.30
2022-09-28T09:43:09.674Z,12.70
2022-09-28T09:48:32.048Z,13.20
2022-09-28T09:53:31.297Z,13.50
2022-09-28T09:58:32.890Z,13.60
2022-09-28T10:03:45.606Z,14.00
2022-09-28T10:08:49.729Z,14.30
2022-09-28T10:13:45.016Z,14.00
2022-09-28T10:19:00.757Z,13.90
2022-09-28T10:24:19.736Z,13.70
2022-09-28T10:29:17.844Z,13.70
2022-09-28T10:34:17.285Z,13.80
2022-09-28T10:39:34.459Z,14.00
2022-09-28T10:44:29.029Z,14.60
2022-09-28T10:49:47.404Z,15.20
2022-09-28T10:54:54.473Z,15.70
2022-09-28T10:59:50.142Z,16.30
2022-09-28T11:04:57.088Z,16.90
2022-09-28T11:09:52.455Z,17.60
2022-09-28T11:14:49.141Z,17.90
2022-09-28T11:19:45.534Z,18.20
2022-09-28T11:24:40.578Z,18.20
2022-09-28T11:29:40.055Z,18.20
2022-09-28T11:34:59.009Z,18.60
2022-09-28T11:40:03.450Z,18.60
2022-09-28T11:45:04.060Z,19.00
2022-09-28T11:50:05.926Z,19.30
2022-09-28T11:55:06.994Z,19.50
2022-09-28T12:00:05.774Z,19.70
2022-09-28T12:05:20.715Z,20.00
2022-09-28T12:10:22.809Z,20.00
2022-09-28T12:15:20.234Z,19.50
2022-09-28T12:20:20.922Z,18.70
2022-09-28T12:25:20.998Z,18.70
2022-09-28T12:30:17.057Z,19.40
2022-09-28T12:35:16.247Z,19.60
2022-09-28T12:40:30.231Z,19.50
2022-09-28T12:45:59.754Z,19.50
2022-09-28T12:51:06.431Z,19.40
2022-09-28T12:56:06.419Z,19.20
2022-09-28T13:01:11.929Z,19.30
2022-09-28T13:06:20.508Z,19.40
2022-09-28T13:11:24.592Z,19.20
2022-09-28T13:16:23.091Z,19.00
2022-09-28T13:21:28.613Z,18.90
2022-09-28T13:26:28.209Z,18.90
2022-09-28T13:31:29.242Z,18.60
2022-09-28T13:36:41.064Z,19.10
2022-09-28T13:41:40.655Z,18.80
2022-09-28T13:46:40.925Z,18.40
2022-09-28T13:51:47.822Z,20.20
2022-09-28T13:56:55.329Z,19.40
2022-09-28T14:01:56.061Z,18.50
2022-09-28T14:06:55.792Z,17.70
2022-09-28T14:11:59.703Z,17.20
2022-09-28T14:17:01.346Z,16.90
2022-09-28T14:22:11.218Z,16.90
2022-09-28T14:27:29.627Z,18.20
2022-09-28T14:32:36.461Z,19.20
2022-09-28T14:37:50.953Z,18.70
2022-09-28T14:43:24.262Z,17.80
2022-09-28T14:48:44.011Z,17.10
2022-09-28T14:53:40.609Z,16.80
2022-09-28T14:58:39.497Z,16.50
2022-09-28T15:03:36.678Z,16.20
2022-09-28T15:08:40.819Z,16.20
2022-09-28T15:13:36.546Z,16.10
2022-09-28T15:19:09.343Z,15.90
2022-09-28T15:24:03.019Z,15.70
2022-09-28T15:28:59.776Z,15.70
2022-09-28T15:34:11.392Z,15.60
2022-09-28T15:39:07.788Z,15.50
2022-09-28T15:44:24.525Z,15.40
2022-09-28T15:49:26.254Z,15.20
2022-09-28T15:54:25.034Z,15.20
2022-09-28T15:59:29.603Z,15.20
2022-09-28T16:04:39.529Z,15.00
2022-09-28T16:09:40.290Z,14.90
2022-09-28T16:14:36.193Z,14.80
2022-09-28T16:19:32.222Z,14.80
2022-09-28T16:24:30.578Z,14.70
2022-09-28T16:29:27.252Z,14.70
2022-09-28T16:34:26.650Z,14.70
2022-09-28T16:39:21.977Z,14.60
2022-09-28T16:44:20.748Z,14.60
2022-09-28T16:49:19.642Z,14.50
2022-09-28T16:54:34.355Z,14.50
2022-09-28T16:59:28.434Z,14.50
2022-09-28T17:04:23.461Z,14.50
2022-09-28T17:09:18.722Z,14.40
2022-09-28T17:14:12.642Z,14.30
2022-09-28T17:19:14.014Z,14.30
2022-09-28T17:24:08.349Z,14.20
2022-09-28T17:29:03.993Z,14.20
2022-09-28T17:33:58.605Z,14.20
2022-09-28T17:38:52.938Z,14.20
2022-09-28T17:43:48.230Z,14.10
2022-09-28T17:48:47.209Z,14.10
